createdAt,value
2023-04-06T00:00:00.173Z,101238.63
2023-04-06T00:00:22.349Z,101236.00
2023-04-06T00:00:44.073Z,101235.16
2023-04-06T00:01:06.040Z,101241.31
2023-04-06T00:01:27.908Z,101236.97
2023-04-06T00:01:51.085Z,101233.41
2023-04-06T00:02:13.021Z,101232.53
2023-04-06T00:02:36.221Z,101237.75
2023-04-06T00:02:58.101Z,101242.16
2023-04-06T00:03:21.116Z,101235.03
2023-04-06T00:03:43.199Z,101226.19
2023-04-06T00:04:05.832Z,101234.16
2023-04-06T00:04:27.745Z,101228.84
2023-04-06T00:04:49.499Z,101219.13
2023-04-06T00:05:12.174Z,101232.34
2023-04-06T00:05:33.883Z,101187.56
2023-04-06T00:05:56.537Z,101224.34
2023-04-06T00:06:18.321Z,101232.28
2023-04-06T00:06:41.348Z,101224.34
2023-04-06T00:07:03.188Z,101203.31
2023-04-06T00:07:24.922Z,101232.25
2023-04-06T00:07:46.657Z,101222.56
2023-04-06T00:08:09.336Z,101220.75
2023-04-06T00:08:31.378Z,101220.69
2023-04-06T00:08:53.177Z,101221.59
2023-04-06T00:09:14.984Z,101227.72
2023-04-06T00:09:36.878Z,101222.50
2023-04-06T00:10:15.720Z,101225.16
2023-04-06T00:10:38.511Z,101213.78
2023-04-06T00:11:00.293Z,101230.44
2023-04-06T00:11:22.096Z,101230.50
2023-04-06T00:11:43.813Z,101234.94
2023-04-06T00:12:07.114Z,101227.88
2023-04-06T00:12:28.878Z,101236.75
2023-04-06T00:12:50.870Z,101234.97
2023-04-06T00:13:12.690Z,101235.00
2023-04-06T00:13:35.367Z,101233.19
2023-04-06T00:13:57.038Z,101232.34
2023-04-06T00:14:18.801Z,101210.50
2023-04-06T00:14:41.405Z,101226.19
2023-04-06T00:15:03.914Z,101228.13
2023-04-06T00:15:26.830Z,101243.78
2023-04-06T00:15:48.551Z,101233.16
2023-04-06T00:16:10.446Z,101234.03
2023-04-06T00:16:32.191Z,101235.81
2023-04-06T00:16:54.081Z,101229.66
2023-04-06T00:17:16.770Z,101227.88
2023-04-06T00:17:39.936Z,101226.97
2023-04-06T00:18:01.894Z,101235.00
2023-04-06T00:18:24.112Z,101233.19
2023-04-06T00:18:46.935Z,101231.47
2023-04-06T00:19:08.789Z,101192.25
2023-04-06T00:19:30.701Z,101231.56
2023-04-06T00:19:52.479Z,101234.22
2023-04-06T00:20:14.241Z,101228.06
2023-04-06T00:20:36.952Z,101222.81
2023-04-06T00:20:58.700Z,101218.56
2023-04-06T00:21:20.406Z,101230.00
2023-04-06T00:21:42.291Z,101228.19
2023-04-06T00:22:04.176Z,101233.44
2023-04-06T00:22:26.930Z,101232.59
2023-04-06T00:22:48.679Z,101231.72
2023-04-06T00:23:10.535Z,101226.44
2023-04-06T00:23:32.287Z,101229.88
2023-04-06T00:23:55.023Z,101222.06
2023-04-06T00:24:16.740Z,101223.84
2023-04-06T00:24:38.648Z,101230.84
2023-04-06T00:25:00.637Z,101229.06
2023-04-06T00:25:23.342Z,101226.44
2023-04-06T00:25:45.203Z,101216.72
2023-04-06T00:26:06.953Z,101229.06
2023-04-06T00:26:28.730Z,101228.19
2023-04-06T00:26:51.270Z,101235.22
2023-04-06T00:27:14.196Z,101211.63
2023-04-06T00:27:36.013Z,101224.66
2023-04-06T00:27:58.044Z,101225.59
2023-04-06T00:28:25.973Z,101223.91
2023-04-06T00:28:48.644Z,101229.16
2023-04-06T00:29:10.534Z,101194.16
2023-04-06T00:29:32.489Z,101231.00
2023-04-06T00:29:54.264Z,101224.00
2023-04-06T00:30:17.002Z,101226.66
2023-04-06T00:30:38.719Z,101224.97
2023-04-06T00:31:00.654Z,101218.78
2023-04-06T00:31:22.395Z,101225.78
2023-04-06T00:31:44.412Z,101223.19
2023-04-06T00:32:07.188Z,101221.34
2023-04-06T00:32:29.325Z,101218.72
2023-04-06T00:32:52.551Z,101221.31
2023-04-06T00:33:14.703Z,101194.22
2023-04-06T00:33:36.549Z,101189.03
2023-04-06T00:33:59.030Z,101195.91
2023-04-06T00:34:21.725Z,101227.53
2023-04-06T00:34:43.698Z,101224.91
2023-04-06T00:35:06.870Z,101216.16
2023-04-06T00:35:28.692Z,101226.59
2023-04-06T00:35:54.367Z,101218.69
2023-04-06T00:36:17.126Z,101213.34
2023-04-06T00:36:39.350Z,101223.91
2023-04-06T00:37:01.145Z,101201.22
2023-04-06T00:37:24.079Z,101211.63
2023-04-06T00:37:47.667Z,101214.28
2023-04-06T00:38:10.253Z,101216.94
2023-04-06T00:38:32.657Z,101211.59
2023-04-06T00:38:56.016Z,101217.78
2023-04-06T00:39:19.745Z,101222.19
2023-04-06T00:39:43.744Z,101222.22
2023-04-06T00:40:07.847Z,101207.34
2023-04-06T00:40:29.745Z,101211.66
2023-04-06T00:40:51.515Z,101212.47
2023-04-06T00:41:13.595Z,101203.81
2023-04-06T00:41:37.842Z,101211.72
2023-04-06T00:41:59.945Z,101219.78
2023-04-06T00:42:26.635Z,101215.41
2023-04-06T00:42:48.816Z,101219.78
2023-04-06T00:43:12.010Z,101217.16
2023-04-06T00:43:33.792Z,101215.56
2023-04-06T00:43:55.675Z,101214.72
2023-04-06T00:44:18.399Z,101210.41
2023-04-06T00:44:40.212Z,101190.22
2023-04-06T00:45:02.782Z,101211.25
2023-04-06T00:45:24.654Z,101217.44
2023-04-06T00:45:47.393Z,101219.25
2023-04-06T00:46:09.335Z,101211.31
2023-04-06T00:46:31.361Z,101207.81
2023-04-06T00:46:53.117Z,101212.22
2023-04-06T00:47:14.853Z,101208.69
2023-04-06T00:47:37.840Z,101206.97
2023-04-06T00:48:01.179Z,101216.66
2023-04-06T00:48:22.960Z,101211.38
2023-04-06T00:48:44.754Z,101210.50
2023-04-06T00:49:06.810Z,101213.16
2023-04-06T00:49:29.897Z,101205.22
2023-04-06T00:49:51.917Z,101206.97
2023-04-06T00:50:13.738Z,101209.69
2023-04-06T00:50:37.033Z,101207.88
2023-04-06T00:50:59.091Z,101206.97
2023-04-06T00:51:21.875Z,101206.09
2023-04-06T00:51:43.857Z,101211.38
2023-04-06T00:52:06.131Z,101199.91
2023-04-06T00:52:28.594Z,101151.78
2023-04-06T00:52:51.478Z,101201.56
2023-04-06T00:53:18.637Z,101203.38
2023-04-06T00:53:40.881Z,101203.31
2023-04-06T00:54:03.982Z,101185.88
2023-04-06T00:54:28.979Z,101207.72
2023-04-06T00:54:51.274Z,101205.94
2023-04-06T00:55:14.698Z,101209.41
2023-04-06T00:55:40.077Z,101189.28
2023-04-06T00:56:03.615Z,101200.63
2023-04-06T00:56:32.467Z,101208.59
2023-04-06T00:56:54.319Z,101202.44
2023-04-06T00:57:17.206Z,101205.13
2023-04-06T00:57:40.239Z,101201.59
2023-04-06T00:58:02.115Z,101203.38
2023-04-06T00:58:27.446Z,101203.38
2023-04-06T00:58:58.230Z,101191.91
2023-04-06T00:59:20.557Z,101196.31
2023-04-06T00:59:43.096Z,101176.19
2023-04-06T01:00:10.905Z,101202.47
2023-04-06T01:00:33.460Z,101193.66
2023-04-06T01:00:57.072Z,101196.31
2023-04-06T01:01:19.261Z,101194.56
2023-04-06T01:01:42.545Z,101189.28
2023-04-06T01:02:20.297Z,101200.72
2023-04-06T01:02:46.048Z,101195.44
2023-04-06T01:03:10.676Z,101187.56
2023-04-06T01:03:36.789Z,101191.94
2023-04-06T01:03:59.778Z,101176.09
2023-04-06T01:04:23.633Z,101197.13
2023-04-06T01:04:46.930Z,101185.66
2023-04-06T01:05:19.207Z,101195.38
2023-04-06T01:05:47.503Z,101192.63
2023-04-06T01:06:17.149Z,101182.13
2023-04-06T01:06:48.649Z,101181.16
2023-04-06T01:07:11.410Z,101189.09
2023-04-06T01:07:40.550Z,101160.19
2023-04-06T01:08:09.882Z,101184.69
2023-04-06T01:08:31.707Z,101182.94
2023-04-06T01:09:08.115Z,101183.81
2023-04-06T01:09:30.570Z,101182.94
2023-04-06T01:09:54.369Z,101181.19
2023-04-06T01:10:26.376Z,101181.19
2023-04-06T01:10:54.224Z,101167.22
2023-04-06T01:11:21.634Z,101182.09
2023-04-06T01:11:45.562Z,101177.66
2023-04-06T01:12:11.421Z,101178.53
2023-04-06T01:12:34.166Z,101173.22
2023-04-06T01:12:58.863Z,101174.03
2023-04-06T01:13:39.266Z,101171.41
2023-04-06T01:14:05.930Z,101172.38
2023-04-06T01:14:42.542Z,101178.47
2023-04-06T01:15:05.260Z,101160.06
2023-04-06T01:15:30.838Z,101173.97
2023-04-06T01:15:53.210Z,101172.25
2023-04-06T01:16:31.768Z,101170.50
2023-04-06T01:17:05.726Z,101182.84
2023-04-06T01:17:29.650Z,101171.38
2023-04-06T01:17:57.293Z,101173.16
2023-04-06T01:18:27.273Z,101176.69
2023-04-06T01:18:57.104Z,101168.75
2023-04-06T01:19:23.312Z,101154.78
2023-04-06T01:19:50.217Z,101165.28
2023-04-06T01:20:18.671Z,101171.44
2023-04-06T01:20:41.463Z,101162.72
2023-04-06T01:21:03.731Z,101158.22
2023-04-06T01:21:26.346Z,101151.38
2023-04-06T01:22:17.473Z,101164.38
2023-04-06T01:22:46.164Z,101150.44
2023-04-06T01:23:08.354Z,101159.09
2023-04-06T01:23:32.439Z,101165.19
2023-04-06T01:23:54.378Z,101160.78
2023-04-06T01:24:23.833Z,101160.78
2023-04-06T01:25:18.146Z,101161.75
2023-04-06T01:25:51.212Z,101157.41
2023-04-06T01:26:14.126Z,101158.25
2023-04-06T01:26:37.063Z,101162.66
2023-04-06T01:27:02.583Z,101165.34
2023-04-06T01:27:34.542Z,101159.13
2023-04-06T01:28:08.328Z,101160.06
2023-04-06T01:28:49.064Z,101139.94
2023-04-06T01:29:21.400Z,101151.28
2023-04-06T01:29:43.830Z,101153.97
2023-04-06T01:30:08.774Z,101156.63
2023-04-06T01:30:50.696Z,101148.69
2023-04-06T01:31:35.537Z,101142.66
2023-04-06T01:31:57.574Z,101156.59
2023-04-06T01:32:20.323Z,101145.16
2023-04-06T01:32:45.950Z,101151.25
2023-04-06T01:33:10.647Z,101156.53
2023-04-06T01:33:58.268Z,101157.47
2023-04-06T01:34:21.569Z,101157.44
2023-04-06T01:34:43.363Z,101161.03
2023-04-06T01:35:05.725Z,101152.22
2023-04-06T01:35:31.203Z,101156.63
2023-04-06T01:36:09.864Z,101153.09
2023-04-06T01:36:34.377Z,101146.94
2023-04-06T01:37:16.855Z,101154.94
2023-04-06T01:37:38.690Z,101153.97
2023-04-06T01:38:04.621Z,101155.81
2023-04-06T01:38:29.060Z,101156.75
2023-04-06T01:38:51.161Z,101154.88
2023-04-06T01:39:15.967Z,101156.63
2023-04-06T01:39:38.652Z,101154.00
2023-04-06T01:40:02.289Z,101157.50
2023-04-06T01:40:36.241Z,101161.03
2023-04-06T01:40:58.964Z,101153.09
2023-04-06T01:41:24.211Z,101147.81
2023-04-06T01:41:48.240Z,101148.69
2023-04-06T01:42:11.453Z,101146.91
2023-04-06T01:42:34.836Z,101146.84
2023-04-06T01:42:57.608Z,101153.91
2023-04-06T01:43:28.579Z,101145.09
2023-04-06T01:44:00.133Z,101153.03
2023-04-06T01:44:26.020Z,101149.53
2023-04-06T01:44:59.153Z,101145.28
2023-04-06T01:45:21.378Z,101143.47
2023-04-06T01:45:43.572Z,101142.59
2023-04-06T01:46:18.437Z,101146.19
2023-04-06T01:46:40.877Z,101144.44
2023-04-06T01:47:03.910Z,101141.78
2023-04-06T01:47:25.729Z,101146.19
2023-04-06T01:47:48.582Z,101149.66
2023-04-06T01:48:10.566Z,101142.69
2023-04-06T01:48:32.654Z,101146.13
2023-04-06T01:48:56.578Z,101146.94
2023-04-06T01:49:31.483Z,101142.75
2023-04-06T01:49:53.327Z,101152.69
2023-04-06T01:50:15.433Z,101150.84
2023-04-06T01:50:40.694Z,101144.59
2023-04-06T01:51:04.252Z,101141.94
2023-04-06T01:51:31.106Z,101141.06
2023-04-06T01:51:56.042Z,101149.88
2023-04-06T01:52:19.566Z,101143.72
2023-04-06T01:52:47.533Z,101148.16
2023-04-06T01:53:09.376Z,101129.75
2023-04-06T01:53:33.425Z,101149.00
2023-04-06T01:53:59.884Z,101144.56
2023-04-06T01:54:57.326Z,101143.69
2023-04-06T01:55:38.241Z,101145.41
2023-04-06T01:56:21.230Z,101145.47
2023-04-06T01:56:56.267Z,101142.84
2023-04-06T01:57:26.289Z,101146.41
2023-04-06T01:57:54.154Z,101141.19
2023-04-06T01:58:27.139Z,101148.31
2023-04-06T01:58:49.242Z,101150.09
2023-04-06T01:59:13.302Z,101141.34
2023-04-06T01:59:37.936Z,101146.63
2023-04-06T02:00:07.742Z,101133.41
2023-04-06T02:00:46.360Z,101137.78
2023-04-06T02:01:08.451Z,101145.69
2023-04-06T02:01:43.342Z,101150.09
2023-04-06T02:02:05.511Z,101137.84
2023-04-06T02:02:30.649Z,101143.03
2023-04-06T02:02:56.779Z,101143.03
2023-04-06T02:03:21.725Z,101145.66
2023-04-06T02:03:47.551Z,101129.81
2023-04-06T02:04:10.423Z,101129.00
2023-04-06T02:04:32.132Z,101141.22
2023-04-06T02:05:03.639Z,101142.94
2023-04-06T02:05:26.203Z,101142.94
2023-04-06T02:05:49.540Z,101142.09
2023-04-06T02:06:18.904Z,101114.09
2023-04-06T02:06:40.738Z,101144.72
2023-04-06T02:07:03.927Z,101138.53
2023-04-06T02:07:27.111Z,101136.78
2023-04-06T02:07:50.056Z,101135.91
2023-04-06T02:08:16.703Z,101139.38
2023-04-06T02:08:38.462Z,101140.41
2023-04-06T02:09:00.199Z,101134.16
2023-04-06T02:09:22.034Z,101125.47
2023-04-06T02:09:44.758Z,101140.41
2023-04-06T02:10:15.821Z,101133.28
2023-04-06T02:10:38.951Z,101138.56
2023-04-06T02:11:10.238Z,101139.47
2023-04-06T02:11:40.292Z,101133.28
2023-04-06T02:12:03.091Z,101135.94
2023-04-06T02:12:27.345Z,101131.56
2023-04-06T02:12:50.197Z,101127.25
2023-04-06T02:13:20.391Z,101137.69
2023-04-06T02:13:46.312Z,101135.91
2023-04-06T02:14:08.011Z,101135.94
2023-04-06T02:14:35.024Z,101122.03
2023-04-06T02:14:56.913Z,101116.69
2023-04-06T02:15:19.633Z,101133.41
2023-04-06T02:15:41.452Z,101137.72
2023-04-06T02:16:03.685Z,101142.97
2023-04-06T02:16:25.570Z,101135.94
2023-04-06T02:16:47.389Z,101135.09
2023-04-06T02:17:10.591Z,101097.56
2023-04-06T02:17:32.774Z,101135.94
2023-04-06T02:17:54.925Z,101129.81
2023-04-06T02:18:18.594Z,101136.81
2023-04-06T02:18:40.553Z,101125.50
2023-04-06T02:19:03.622Z,101134.22
2023-04-06T02:19:25.364Z,101125.41
2023-04-06T02:19:47.077Z,101134.25
2023-04-06T02:20:09.554Z,101106.28
2023-04-06T02:20:31.223Z,101132.47
2023-04-06T02:20:53.935Z,101133.41
2023-04-06T02:21:18.406Z,101140.47
2023-04-06T02:21:40.372Z,101139.56
2023-04-06T02:22:02.094Z,101136.00
2023-04-06T02:22:24.887Z,101130.84
2023-04-06T02:22:47.969Z,101131.63
2023-04-06T02:23:09.690Z,101122.91
2023-04-06T02:23:31.483Z,101099.38
2023-04-06T02:23:54.884Z,101136.97
2023-04-06T02:24:17.104Z,101126.44
2023-04-06T02:24:38.833Z,101131.78
2023-04-06T02:25:00.535Z,101123.13
2023-04-06T02:25:22.367Z,101132.75
2023-04-06T02:25:45.170Z,101133.63
2023-04-06T02:26:06.885Z,101130.97
2023-04-06T02:26:28.921Z,101136.22
2023-04-06T02:26:50.863Z,101134.50
2023-04-06T02:27:12.547Z,101134.50
2023-04-06T02:27:35.519Z,101131.81
2023-04-06T02:27:57.232Z,101134.50
2023-04-06T02:28:18.969Z,101140.69
2023-04-06T02:28:40.885Z,101127.53
2023-04-06T02:29:03.163Z,101133.69
2023-04-06T02:29:25.886Z,101138.97
2023-04-06T02:29:47.678Z,101118.91
2023-04-06T02:30:13.599Z,101130.28
2023-04-06T02:30:35.486Z,101131.19
2023-04-06T02:30:58.244Z,101130.34
2023-04-06T02:31:22.637Z,101134.72
2023-04-06T02:31:45.368Z,101139.19
2023-04-06T02:32:07.586Z,101130.34
2023-04-06T02:32:30.500Z,101122.44
2023-04-06T02:32:53.471Z,101104.97
2023-04-06T02:33:15.700Z,101124.09
2023-04-06T02:33:41.375Z,101132.81
2023-04-06T02:34:03.758Z,101131.06
2023-04-06T02:34:27.752Z,101124.00
2023-04-06T02:34:49.652Z,101125.72
2023-04-06T02:35:13.708Z,101134.50
2023-04-06T02:35:36.216Z,101135.34
2023-04-06T02:35:58.088Z,101112.53
2023-04-06T02:36:21.997Z,101132.75
2023-04-06T02:36:43.847Z,101131.03
2023-04-06T02:37:05.728Z,101129.22
2023-04-06T02:37:27.601Z,101110.84
2023-04-06T02:37:51.265Z,101137.16
2023-04-06T02:38:14.020Z,101126.66
2023-04-06T02:38:37.204Z,101128.41
2023-04-06T02:38:58.987Z,101129.28
2023-04-06T02:39:20.895Z,101126.72
2023-04-06T02:39:43.737Z,101124.97
2023-04-06T02:40:07.190Z,101131.06
2023-04-06T02:40:28.919Z,101128.41
2023-04-06T02:40:52.141Z,101119.59
2023-04-06T02:41:16.930Z,101131.06
2023-04-06T02:41:39.912Z,101121.38
2023-04-06T02:42:01.996Z,101129.28
2023-04-06T02:42:24.983Z,101130.13
2023-04-06T02:42:48.266Z,101131.03
2023-04-06T02:43:12.183Z,101120.53
2023-04-06T02:43:35.036Z,101123.13
2023-04-06T02:44:01.603Z,101123.94
2023-04-06T02:44:32.484Z,101123.00
2023-04-06T02:44:54.402Z,101117.75
2023-04-06T02:45:19.987Z,101120.41
2023-04-06T02:45:43.100Z,101111.69
2023-04-06T02:46:05.945Z,101124.81
2023-04-06T02:46:31.848Z,101127.44
2023-04-06T02:46:53.874Z,101123.00
2023-04-06T02:47:18.107Z,101129.22
2023-04-06T02:47:43.488Z,101130.09
2023-04-06T02:48:07.090Z,101121.28
2023-04-06T02:48:29.151Z,101124.84
2023-04-06T02:48:51.945Z,101118.78
2023-04-06T02:49:13.738Z,101125.81
2023-04-06T02:49:35.981Z,101125.81
2023-04-06T02:49:57.772Z,101128.47
2023-04-06T02:50:20.943Z,101125.84
2023-04-06T02:50:50.829Z,101118.03
2023-04-06T02:51:12.515Z,101124.13
2023-04-06T02:51:36.899Z,101120.63
2023-04-06T02:52:13.439Z,101122.47
2023-04-06T02:52:35.258Z,101120.75
2023-04-06T02:52:58.709Z,101118.06
2023-04-06T02:53:20.577Z,101125.97
2023-04-06T02:53:42.292Z,101125.09
2023-04-06T02:54:04.123Z,101118.09
2023-04-06T02:54:25.939Z,101124.19
2023-04-06T02:54:48.769Z,101124.19
2023-04-06T02:55:17.378Z,101111.06
2023-04-06T02:55:39.150Z,101124.28
2023-04-06T02:56:01.108Z,101119.84
2023-04-06T02:56:33.032Z,101110.22
2023-04-06T02:56:54.839Z,101119.81
2023-04-06T02:57:18.841Z,101103.19
2023-04-06T02:57:41.475Z,101121.63
2023-04-06T02:58:04.526Z,101122.47
2023-04-06T02:58:33.830Z,101113.69
2023-04-06T02:58:55.934Z,101119.78
2023-04-06T02:59:21.564Z,101118.03
2023-04-06T02:59:55.515Z,101109.16
2023-04-06T03:00:23.863Z,101117.09
2023-04-06T03:00:45.606Z,101118.81
2023-04-06T03:01:07.473Z,101123.25
2023-04-06T03:01:30.601Z,101113.50
2023-04-06T03:01:56.748Z,101113.63
2023-04-06T03:02:18.454Z,101125.91
2023-04-06T03:02:40.955Z,101115.44
2023-04-06T03:03:09.374Z,101117.19
2023-04-06T03:03:32.515Z,101118.03
2023-04-06T03:03:55.058Z,101126.78
2023-04-06T03:04:22.723Z,101116.28
2023-04-06T03:04:46.740Z,101116.34
2023-04-06T03:05:23.716Z,101119.81
2023-04-06T03:05:45.698Z,101126.84
2023-04-06T03:06:08.968Z,101125.91
2023-04-06T03:06:31.369Z,101121.63
2023-04-06T03:07:01.352Z,101119.78
2023-04-06T03:07:33.358Z,101125.91
2023-04-06T03:07:55.312Z,101121.50
2023-04-06T03:08:28.712Z,101124.13
2023-04-06T03:08:50.690Z,101117.16
2023-04-06T03:09:15.321Z,101126.03
2023-04-06T03:09:39.293Z,101120.69
2023-04-06T03:10:01.715Z,101105.75
2023-04-06T03:10:26.043Z,101115.44
2023-04-06T03:10:47.883Z,101119.75
2023-04-06T03:11:12.034Z,101111.88
2023-04-06T03:11:36.864Z,101113.56
2023-04-06T03:11:58.622Z,101114.56
2023-04-06T03:12:20.606Z,101123.25
2023-04-06T03:13:07.222Z,101121.50
2023-04-06T03:13:50.562Z,101118.78
2023-04-06T03:14:12.272Z,101095.13
2023-04-06T03:14:34.008Z,101119.63
2023-04-06T03:14:56.976Z,101116.97
2023-04-06T03:15:18.961Z,101116.97
2023-04-06T03:15:46.066Z,101064.53
2023-04-06T03:16:11.632Z,101113.44
2023-04-06T03:16:34.458Z,101108.97
2023-04-06T03:16:57.179Z,101128.34
2023-04-06T03:17:21.362Z,101115.13
2023-04-06T03:17:43.365Z,101116.06
2023-04-06T03:18:13.356Z,101113.44
2023-04-06T03:18:38.698Z,101113.44
2023-04-06T03:19:00.934Z,101121.34
2023-04-06T03:19:24.106Z,101105.56
2023-04-06T03:19:47.483Z,101115.19
2023-04-06T03:20:10.150Z,101114.25
2023-04-06T03:20:31.931Z,101099.44
2023-04-06T03:20:54.867Z,101113.38
2023-04-06T03:21:20.256Z,101109.84
2023-04-06T03:21:44.565Z,101112.47
2023-04-06T03:22:07.504Z,101110.72
2023-04-06T03:22:30.110Z,101102.03
2023-04-06T03:22:52.881Z,101111.59
2023-04-06T03:23:21.607Z,101117.75
2023-04-06T03:23:51.456Z,101119.50
2023-04-06T03:24:14.716Z,101116.88
2023-04-06T03:24:37.564Z,101115.13
2023-04-06T03:25:03.495Z,101106.38
2023-04-06T03:25:26.675Z,101118.59
2023-04-06T03:25:53.271Z,101098.47
2023-04-06T03:26:16.644Z,101113.28
2023-04-06T03:26:38.466Z,101109.75
2023-04-06T03:27:02.505Z,101116.00
2023-04-06T03:27:25.677Z,101120.41
2023-04-06T03:27:47.540Z,101112.47
2023-04-06T03:28:12.569Z,101115.13
2023-04-06T03:28:45.535Z,101108.88
2023-04-06T03:29:07.532Z,101081.84
2023-04-06T03:29:30.875Z,101115.13
2023-04-06T03:29:52.743Z,101115.13
2023-04-06T03:30:22.486Z,101119.50
2023-04-06T03:30:44.279Z,101120.34
2023-04-06T03:31:06.702Z,101104.59
2023-04-06T03:31:52.050Z,101121.38
2023-04-06T03:32:23.290Z,101118.78
2023-04-06T03:32:45.405Z,101114.38
2023-04-06T03:33:07.149Z,101097.72
2023-04-06T03:33:37.116Z,101115.31
2023-04-06T03:34:00.001Z,101111.75
2023-04-06T03:34:26.450Z,101113.50
2023-04-06T03:34:48.167Z,101106.44
2023-04-06T03:35:11.600Z,101112.69
2023-04-06T03:35:33.730Z,101105.63
2023-04-06T03:35:55.926Z,101110.03
2023-04-06T03:36:21.431Z,101120.59
2023-04-06T03:36:43.244Z,101106.53
2023-04-06T03:37:10.494Z,101078.59
2023-04-06T03:37:37.565Z,101060.22
2023-04-06T03:38:01.455Z,101094.44
2023-04-06T03:38:23.825Z,101108.41
2023-04-06T03:38:45.688Z,101077.81
2023-04-06T03:39:10.735Z,101108.41
2023-04-06T03:39:36.118Z,101103.28
2023-04-06T03:39:59.380Z,101111.13
2023-04-06T03:40:21.177Z,101110.25
2023-04-06T03:40:43.586Z,101117.28
2023-04-06T03:41:05.562Z,101111.94
2023-04-06T03:41:28.477Z,101094.50
2023-04-06T03:42:01.836Z,101116.34
2023-04-06T03:42:33.466Z,101117.19
2023-04-06T03:43:06.198Z,101108.34
2023-04-06T03:43:30.874Z,101115.47
2023-04-06T03:43:52.668Z,101100.50
2023-04-06T03:44:14.365Z,101115.41
2023-04-06T03:44:37.110Z,101107.59
2023-04-06T03:44:59.480Z,101111.00
2023-04-06T03:45:21.330Z,101112.75
2023-04-06T03:45:45.989Z,101113.66
2023-04-06T03:46:10.276Z,101117.19
2023-04-06T03:46:32.317Z,101120.69
2023-04-06T03:46:54.875Z,101112.75
2023-04-06T03:47:17.238Z,101109.22
2023-04-06T03:47:40.155Z,101106.59
2023-04-06T03:48:03.792Z,101120.63
2023-04-06T03:48:28.673Z,101094.38
2023-04-06T03:48:50.421Z,101110.09
2023-04-06T03:49:14.781Z,101119.81
2023-04-06T03:49:40.569Z,101118.03
2023-04-06T03:50:05.039Z,101113.66
2023-04-06T03:50:28.937Z,101117.16
2023-04-06T03:50:51.820Z,101117.16
2023-04-06T03:51:13.532Z,101077.75
2023-04-06T03:51:35.332Z,101101.38
2023-04-06T03:51:57.555Z,101110.13
2023-04-06T03:52:20.241Z,101117.19
2023-04-06T03:52:42.002Z,101110.13
2023-04-06T03:53:04.097Z,101111.88
2023-04-06T03:53:26.057Z,101113.66
2023-04-06T03:53:47.761Z,101115.44
2023-04-06T03:54:11.828Z,101111.94
2023-04-06T03:54:33.594Z,101103.16
2023-04-06T03:54:55.455Z,101109.28
2023-04-06T03:55:17.337Z,101103.19
2023-04-06T03:55:40.696Z,101118.97
2023-04-06T03:56:04.741Z,101102.31
2023-04-06T03:56:27.444Z,101112.75
2023-04-06T03:56:49.843Z,101115.41
2023-04-06T03:57:12.575Z,101115.44
2023-04-06T03:57:34.292Z,101118.97
2023-04-06T03:57:55.969Z,101117.22
2023-04-06T03:58:17.798Z,101096.19
2023-04-06T03:58:41.889Z,101110.19
2023-04-06T03:59:03.669Z,101108.41
2023-04-06T03:59:25.457Z,101111.06
2023-04-06T03:59:48.422Z,101114.56
2023-04-06T04:00:12.555Z,101115.41
2023-04-06T04:00:37.374Z,101109.28
2023-04-06T04:00:59.079Z,101109.31
2023-04-06T04:01:21.073Z,101109.28
2023-04-06T04:01:43.294Z,101111.94
2023-04-06T04:02:06.299Z,101118.09
2023-04-06T04:02:28.233Z,101104.00
2023-04-06T04:02:50.109Z,101089.19
2023-04-06T04:03:12.002Z,101111.06
2023-04-06T04:03:35.068Z,101110.13
2023-04-06T04:03:56.953Z,101116.34
2023-04-06T04:04:18.776Z,101114.56
2023-04-06T04:04:40.610Z,101114.53
2023-04-06T04:05:02.750Z,101113.69
2023-04-06T04:05:26.425Z,101100.56
2023-04-06T04:05:48.712Z,101119.00
2023-04-06T04:06:10.426Z,101120.75
2023-04-06T04:06:32.226Z,101112.81
2023-04-06T04:06:54.104Z,101115.47
2023-04-06T04:07:16.865Z,101097.94
2023-04-06T04:07:38.611Z,101114.59
2023-04-06T04:08:02.115Z,101098.84
2023-04-06T04:08:26.123Z,101114.66
2023-04-06T04:08:47.898Z,101115.47
2023-04-06T04:09:12.170Z,101112.00
2023-04-06T04:09:33.879Z,101110.19
2023-04-06T04:09:55.789Z,101105.84
2023-04-06T04:10:17.559Z,101111.06
2023-04-06T04:10:39.388Z,101114.59
2023-04-06T04:11:01.418Z,101116.41
2023-04-06T04:11:24.902Z,101118.16
2023-04-06T04:11:52.730Z,101109.38
2023-04-06T04:12:17.604Z,101111.19
2023-04-06T04:12:39.509Z,101110.31
2023-04-06T04:13:02.378Z,101102.34
2023-04-06T04:13:24.277Z,101112.06
2023-04-06T04:13:47.279Z,101114.66
2023-04-06T04:14:09.250Z,101108.53
2023-04-06T04:14:31.082Z,101111.22
2023-04-06T04:14:53.038Z,101109.41
2023-04-06T04:15:16.113Z,101110.25
2023-04-06T04:15:37.981Z,101110.28
2023-04-06T04:15:59.754Z,101111.13
2023-04-06T04:16:21.653Z,101119.09
2023-04-06T04:16:44.405Z,101111.22
2023-04-06T04:17:06.122Z,101092.81
2023-04-06T04:17:27.885Z,101110.31
2023-04-06T04:17:50.519Z,101116.41
2023-04-06T04:18:12.328Z,101115.53
2023-04-06T04:18:36.203Z,101119.06
2023-04-06T04:18:59.109Z,101114.66
2023-04-06T04:19:20.954Z,101111.13
2023-04-06T04:19:42.911Z,101119.94
2023-04-06T04:20:06.730Z,101113.78
2023-04-06T04:20:29.439Z,101118.16
2023-04-06T04:20:51.900Z,101117.31
2023-04-06T04:21:15.474Z,101111.22
2023-04-06T04:21:45.318Z,101110.34
2023-04-06T04:22:09.132Z,101114.94
2023-04-06T04:22:34.481Z,101113.16
2023-04-06T04:22:56.297Z,101119.25
2023-04-06T04:23:19.136Z,101113.97
2023-04-06T04:23:41.294Z,101115.81
2023-04-06T04:24:03.373Z,101116.69
2023-04-06T04:24:27.181Z,101114.03
2023-04-06T04:24:50.217Z,101117.63
2023-04-06T04:25:12.105Z,101116.75
2023-04-06T04:25:39.391Z,101113.28
2023-04-06T04:26:01.418Z,101104.59
2023-04-06T04:26:24.867Z,101108.00
2023-04-06T04:26:46.595Z,101108.16
2023-04-06T04:27:10.818Z,101115.16
2023-04-06T04:27:33.707Z,101108.09
2023-04-06T04:27:55.812Z,101112.47
2023-04-06T04:28:19.762Z,101111.59
2023-04-06T04:28:43.301Z,101114.22
2023-04-06T04:29:05.317Z,101113.34
2023-04-06T04:29:27.026Z,101112.41
2023-04-06T04:29:49.558Z,101112.41
2023-04-06T04:30:12.909Z,101107.28
2023-04-06T04:30:35.729Z,101117.78
2023-04-06T04:31:01.676Z,101109.94
2023-04-06T04:31:26.733Z,101117.84
2023-04-06T04:31:53.281Z,101109.94
2023-04-06T04:32:16.487Z,101116.09
2023-04-06T04:32:38.887Z,101105.53
2023-04-06T04:33:02.615Z,101112.63
2023-04-06T04:33:24.677Z,101098.59
2023-04-06T04:33:49.941Z,101099.47
2023-04-06T04:34:21.494Z,101118.78
2023-04-06T04:34:43.209Z,101117.06
2023-04-06T04:35:12.309Z,101114.47
2023-04-06T04:35:39.242Z,101118.06
2023-04-06T04:36:02.133Z,101117.13
2023-04-06T04:36:30.798Z,101086.53
2023-04-06T04:36:54.908Z,101113.63
2023-04-06T04:37:26.427Z,101118.94
2023-04-06T04:37:51.966Z,101116.34